createdAt,value
2023-01-11T00:01:58.961Z,0.50
2023-01-11T00:04:29.640Z,0.50
2023-01-11T00:11:59.073Z,0.90
2023-01-11T00:14:28.950Z,0.90
2023-01-11T00:16:59.510Z,0.90
2023-01-11T00:19:28.860Z,0.90
2023-01-11T00:21:59.027Z,1.00
2023-01-11T00:24:29.015Z,1.00
2023-01-11T00:26:59.028Z,1.00
2023-01-11T00:29:29.172Z,1.00
2023-01-11T00:31:58.985Z,0.80
2023-01-11T00:34:28.947Z,0.80
2023-01-11T00:36:58.980Z,0.80
2023-01-11T00:39:29.081Z,0.80
2023-01-11T00:42:09.025Z,0.50
2023-01-11T00:44:38.754Z,0.50
2023-01-11T00:47:09.047Z,0.50
2023-01-11T00:49:29.424Z,0.50
2023-01-11T00:51:59.433Z,0.50
2023-01-11T00:54:28.889Z,0.50
2023-01-11T00:56:59.174Z,0.50
2023-01-11T00:59:29.273Z,0.50
2023-01-11T01:04:29.348Z,1.00
2023-01-11T01:06:59.112Z,1.00
2023-01-11T01:09:29.204Z,1.00
2023-01-11T01:12:01.161Z,0.20
2023-01-11T01:14:29.950Z,0.20
2023-01-11T01:17:01.455Z,0.20
2023-01-11T01:19:30.216Z,0.20
2023-01-11T01:21:59.573Z,0.20
2023-01-11T01:24:30.411Z,0.20
2023-01-11T01:29:29.087Z,0.20
2023-01-11T01:31:58.967Z,0.60
2023-01-11T01:34:28.972Z,0.60
2023-01-11T01:36:58.917Z,0.60
2023-01-11T01:39:29.297Z,0.60
2023-01-11T01:44:48.775Z,0.80
2023-01-11T01:47:02.331Z,0.80
2023-01-11T01:49:28.982Z,0.80
2023-01-11T01:51:59.728Z,1.60
2023-01-11T01:54:31.922Z,1.60
2023-01-11T01:59:31.922Z,1.60
2023-01-11T02:02:00.256Z,0.40
2023-01-11T02:04:32.221Z,0.40
2023-01-11T02:07:03.108Z,0.40
2023-01-11T02:09:34.748Z,0.40
2023-01-11T02:12:01.082Z,0.50
2023-01-11T02:14:30.875Z,0.50
2023-01-11T02:16:59.504Z,0.50
2023-01-11T02:19:46.780Z,0.50
2023-01-11T02:22:16.351Z,0.50
2023-01-11T02:27:18.716Z,0.50
2023-01-11T02:29:41.695Z,0.50
2023-01-11T02:32:13.460Z,0.60
2023-01-11T02:34:37.220Z,0.60
2023-01-11T02:37:14.050Z,0.60
2023-01-11T02:39:42.421Z,0.60
2023-01-11T02:42:17.904Z,0.40
2023-01-11T02:44:46.769Z,0.40
2023-01-11T02:47:03.842Z,0.40
2023-01-11T02:49:36.022Z,0.40
2023-01-11T02:52:07.758Z,0.30
2023-01-11T02:54:32.480Z,0.30
2023-01-11T02:57:01.693Z,0.30
2023-01-11T03:02:00.002Z,1.10
2023-01-11T03:04:30.888Z,1.10
2023-01-11T03:07:13.087Z,1.10
2023-01-11T03:09:39.980Z,1.10
2023-01-11T03:12:24.317Z,0.30
2023-01-11T03:14:44.440Z,0.30
2023-01-11T03:17:10.182Z,0.30
2023-01-11T03:19:38.063Z,0.30
2023-01-11T03:22:06.603Z,0.50
2023-01-11T03:24:38.026Z,0.50
2023-01-11T03:27:09.544Z,0.50
2023-01-11T03:29:34.787Z,0.50
2023-01-11T03:32:11.854Z,0.70
2023-01-11T03:34:35.546Z,0.70
2023-01-11T03:37:05.672Z,0.70
2023-01-11T03:39:33.025Z,0.70
2023-01-11T03:42:03.292Z,0.30
2023-01-11T03:44:38.267Z,0.30
2023-01-11T03:47:05.796Z,0.30
2023-01-11T03:49:32.597Z,0.30
2023-01-11T03:52:03.227Z,0.20
2023-01-11T03:54:30.729Z,0.20
2023-01-11T03:57:05.022Z,0.20
2023-01-11T03:59:29.239Z,0.20
2023-01-11T04:01:59.749Z,0.70
2023-01-11T04:04:29.093Z,0.70
2023-01-11T04:06:59.027Z,0.70
2023-01-11T04:09:29.003Z,0.70
2023-01-11T04:11:58.975Z,1.80
2023-01-11T04:14:29.134Z,1.80
2023-01-11T04:16:59.167Z,1.80
2023-01-11T04:19:29.292Z,1.80
2023-01-11T04:24:28.977Z,0.20
2023-01-11T04:26:59.111Z,0.20
2023-01-11T04:29:29.114Z,0.20
2023-01-11T04:34:29.283Z,0.50
2023-01-11T04:39:28.977Z,0.50
2023-01-11T04:42:09.050Z,0.20
2023-01-11T04:44:28.966Z,0.20
2023-01-11T04:46:59.028Z,0.20
2023-01-11T04:49:29.087Z,0.20
2023-01-11T04:51:58.988Z,0.70
2023-01-11T04:54:29.392Z,0.70
2023-01-11T04:56:58.984Z,0.70
2023-01-11T04:59:29.306Z,0.70
2023-01-11T05:01:59.134Z,0.20
2023-01-11T05:04:29.182Z,0.20
2023-01-11T05:06:59.558Z,0.20
2023-01-11T05:09:29.297Z,0.20
2023-01-11T05:11:59.315Z,0.40
2023-01-11T05:14:28.995Z,0.40
2023-01-11T05:16:59.039Z,0.40
2023-01-11T05:21:59.345Z,0.80
2023-01-11T05:24:29.120Z,0.80
2023-01-11T05:26:59.142Z,0.80
2023-01-11T05:29:29.099Z,0.80
2023-01-11T05:31:59.095Z,1.20
2023-01-11T05:34:29.186Z,1.20
2023-01-11T05:39:29.037Z,1.20
2023-01-11T05:41:59.031Z,0.30
2023-01-11T05:44:38.896Z,0.30
2023-01-11T05:46:59.252Z,0.30
2023-01-11T05:49:29.241Z,0.30
2023-01-11T05:51:58.971Z,0.10
2023-01-11T05:54:29.280Z,0.10
2023-01-11T05:56:59.026Z,0.10
2023-01-11T05:59:31.946Z,0.10
2023-01-11T06:06:59.318Z,0.10
2023-01-11T06:11:59.121Z,1.30
2023-01-11T06:14:29.010Z,1.30
2023-01-11T06:17:00.680Z,1.30
2023-01-11T06:19:28.986Z,1.30
2023-01-11T06:21:58.992Z,0.10
2023-01-11T06:24:29.576Z,0.10
2023-01-11T06:26:59.012Z,0.10
2023-01-11T06:29:29.140Z,0.10
2023-01-11T06:31:59.166Z,0.40
2023-01-11T06:34:28.999Z,0.40
2023-01-11T06:36:59.207Z,0.40
2023-01-11T06:39:30.425Z,0.40
2023-01-11T06:41:59.016Z,0.80
2023-01-11T06:44:29.036Z,0.80
2023-01-11T06:46:59.214Z,0.80
2023-01-11T06:49:29.330Z,0.80
2023-01-11T06:51:59.048Z,0.40
2023-01-11T06:54:29.053Z,0.40
2023-01-11T06:56:59.041Z,0.40
2023-01-11T06:59:29.005Z,0.40
2023-01-11T07:01:59.507Z,0.70
2023-01-11T07:04:29.988Z,0.70
2023-01-11T07:06:59.169Z,0.70
2023-01-11T07:09:29.048Z,1.30
2023-01-11T07:11:59.163Z,1.30
2023-01-11T07:14:29.551Z,1.30
2023-01-11T07:16:59.251Z,1.30
2023-01-11T07:19:29.015Z,0.40
2023-01-11T07:21:59.305Z,0.40
2023-01-11T07:24:29.053Z,0.40
2023-01-11T07:27:01.147Z,0.40
2023-01-11T07:29:29.159Z,0.10
2023-01-11T07:31:59.071Z,0.10
2023-01-11T07:36:59.177Z,0.10
2023-01-11T07:39:42.921Z,0.10
2023-01-11T07:42:09.223Z,0.10
2023-01-11T07:44:29.066Z,0.10
2023-01-11T07:46:59.277Z,0.10
2023-01-11T07:49:29.294Z,0.40
2023-01-11T07:51:59.514Z,0.40
2023-01-11T07:54:29.152Z,0.40
2023-01-11T07:56:59.135Z,0.40
2023-01-11T07:59:29.702Z,0.30
2023-01-11T08:01:59.043Z,0.30
2023-01-11T08:04:29.483Z,0.30
2023-01-11T08:06:59.093Z,0.30
2023-01-11T08:09:29.050Z,0.10
2023-01-11T08:12:08.954Z,0.10
2023-01-11T08:14:39.200Z,0.10
2023-01-11T08:16:59.240Z,0.10
2023-01-11T08:19:29.055Z,0.20
2023-01-11T08:21:59.356Z,0.20
2023-01-11T08:24:29.143Z,0.20
2023-01-11T08:26:59.378Z,0.20
2023-01-11T08:29:29.999Z,0.10
2023-01-11T08:34:29.386Z,0.10
2023-01-11T08:37:01.206Z,0.10
2023-01-11T08:39:30.796Z,0.20
2023-01-11T08:42:00.142Z,0.20
2023-01-11T08:44:33.988Z,0.20
2023-01-11T08:46:59.055Z,0.20
2023-01-11T08:49:29.809Z,0.40
2023-01-11T08:54:29.169Z,0.40
2023-01-11T08:56:59.227Z,0.40
2023-01-11T08:59:29.057Z,0.30
2023-01-11T09:02:01.588Z,0.30
2023-01-11T09:04:29.147Z,0.30
2023-01-11T09:06:59.380Z,0.30
2023-01-11T09:12:04.787Z,0.20
2023-01-11T09:14:29.534Z,0.20
2023-01-11T09:16:59.308Z,0.20
2023-01-11T09:22:01.102Z,0.10
2023-01-11T09:24:30.314Z,0.10
2023-01-11T09:26:59.838Z,0.10
2023-01-11T09:31:59.243Z,0.10
2023-01-11T09:34:29.201Z,0.10
2023-01-11T09:37:01.751Z,0.10
2023-01-11T09:39:29.365Z,0.10
2023-01-11T09:42:14.179Z,0.10
2023-01-11T09:44:31.748Z,0.10
2023-01-11T09:47:12.825Z,0.10
2023-01-11T09:49:33.872Z,7.00
2023-01-11T09:52:12.220Z,7.00
2023-01-11T09:54:29.252Z,7.00
2023-01-11T09:57:09.955Z,7.00
2023-01-11T09:59:33.967Z,7.70
2023-01-11T10:02:10.696Z,7.70
2023-01-11T10:04:47.559Z,7.70
2023-01-11T10:18:23.743Z,1.00
2023-01-11T10:18:39.450Z,1.00
2023-01-11T10:19:40.669Z,2.70
2023-01-11T10:22:03.650Z,2.70
2023-01-11T10:24:36.323Z,2.70
2023-01-11T10:27:02.767Z,2.70
2023-01-11T10:32:10.795Z,0.20
2023-01-11T10:34:41.954Z,0.20
2023-01-11T10:37:13.785Z,0.20
2023-01-11T10:39:45.401Z,0.20
2023-01-11T10:42:09.357Z,0.20
2023-01-11T10:44:37.134Z,0.20
2023-01-11T10:49:40.204Z,1.60
2023-01-11T10:54:34.107Z,1.60
2023-01-11T10:59:49.982Z,1.00
2023-01-11T11:04:45.817Z,1.00
2023-01-11T11:07:06.593Z,1.00
2023-01-11T11:09:36.806Z,0.10
2023-01-11T11:12:08.424Z,0.10
2023-01-11T11:14:36.210Z,0.10
2023-01-11T11:17:11.306Z,0.10
2023-01-11T11:19:31.820Z,0.10
2023-01-11T11:21:59.648Z,0.10
2023-01-11T11:24:35.216Z,0.10
2023-01-11T11:27:07.343Z,0.10
2023-01-11T11:34:30.104Z,0.20
2023-01-11T11:37:00.810Z,0.20
2023-01-11T11:39:32.173Z,0.40
2023-01-11T11:42:05.363Z,0.40
2023-01-11T11:44:29.268Z,0.40
2023-01-11T11:49:31.082Z,0.20
2023-01-11T11:52:00.879Z,0.20
2023-01-11T11:54:32.261Z,0.20
2023-01-11T11:57:13.483Z,0.20
2023-01-11T11:59:32.170Z,1.00
2023-01-11T12:02:03.081Z,1.00
2023-01-11T12:04:36.270Z,1.00
2023-01-11T12:07:06.676Z,1.00
2023-01-11T12:09:31.727Z,0.90
2023-01-11T12:11:59.946Z,0.90
2023-01-11T12:14:31.432Z,0.90
2023-01-11T12:16:59.416Z,0.90
2023-01-11T12:19:40.764Z,0.10
2023-01-11T12:22:10.489Z,0.10
2023-01-11T12:27:09.643Z,0.10
2023-01-11T12:29:44.127Z,0.50
2023-01-11T12:34:44.745Z,0.50
2023-01-11T12:37:11.078Z,0.50
2023-01-11T12:39:39.135Z,1.10
2023-01-11T12:42:15.242Z,1.10
2023-01-11T12:44:41.918Z,1.10
2023-01-11T12:47:19.275Z,1.10
2023-01-11T12:49:41.533Z,0.30
2023-01-11T12:52:18.256Z,0.30
2023-01-11T12:54:44.396Z,0.30
2023-01-11T12:57:09.888Z,0.30
2023-01-11T13:02:17.863Z,0.10
2023-01-11T13:04:46.076Z,0.10
2023-01-11T13:07:10.551Z,0.10
2023-01-11T13:09:42.785Z,0.90
2023-01-11T13:12:07.962Z,0.90
2023-01-11T13:14:44.963Z,0.90
2023-01-11T13:17:09.615Z,0.90
2023-01-11T13:19:36.759Z,0.20
2023-01-11T13:22:03.966Z,0.20
2023-01-11T13:24:31.167Z,0.20
2023-01-11T13:27:02.910Z,0.20
2023-01-11T13:29:33.090Z,2.00
2023-01-11T13:32:03.341Z,2.00
2023-01-11T13:34:35.476Z,2.00
2023-01-11T13:37:05.264Z,2.00
2023-01-11T13:39:39.301Z,0.80
2023-01-11T13:42:02.963Z,0.80
2023-01-11T13:47:05.629Z,0.80
2023-01-11T13:49:43.308Z,0.30
2023-01-11T13:52:08.202Z,0.30
2023-01-11T13:57:02.339Z,0.30
2023-01-11T13:59:34.503Z,1.80
2023-01-11T14:02:03.752Z,1.80
2023-01-11T14:04:40.139Z,1.80
2023-01-11T14:07:12.850Z,1.80
2023-01-11T14:09:46.117Z,0.70
2023-01-11T14:12:07.906Z,0.70
2023-01-11T14:14:43.076Z,0.70
2023-01-11T14:17:19.035Z,0.70
2023-01-11T14:19:36.387Z,5.30
2023-01-11T14:22:10.435Z,5.30
2023-01-11T14:24:35.202Z,5.30
2023-01-11T14:27:16.310Z,5.30
2023-01-11T14:29:48.953Z,0.10
2023-01-11T14:32:12.722Z,0.10
2023-01-11T14:34:49.040Z,0.10
2023-01-11T14:37:16.564Z,0.10
2023-01-11T14:39:48.981Z,0.20
2023-01-11T14:42:31.074Z,0.20
2023-01-11T14:44:48.985Z,0.20
2023-01-11T14:47:15.545Z,0.20
2023-01-11T14:49:44.905Z,0.30
2023-01-11T14:52:03.559Z,0.30
2023-01-11T14:54:33.660Z,0.30
2023-01-11T14:57:00.469Z,0.30
2023-01-11T14:59:35.977Z,1.00
2023-01-11T15:02:19.282Z,1.00
2023-01-11T15:04:31.043Z,1.00
2023-01-11T15:07:01.143Z,1.00
2023-01-11T15:09:41.166Z,0.30
2023-01-11T15:12:10.755Z,0.30
2023-01-11T15:14:31.982Z,0.30
2023-01-11T15:17:10.918Z,0.30
2023-01-11T15:19:34.086Z,0.30
2023-01-11T15:22:01.506Z,0.30
2023-01-11T15:24:33.119Z,0.30
2023-01-11T15:27:00.934Z,0.30
2023-01-11T15:29:31.695Z,3.00
2023-01-11T15:32:06.485Z,3.00
2023-01-11T15:34:40.616Z,3.00
2023-01-11T15:37:17.435Z,3.00
2023-01-11T15:39:35.646Z,0.30
2023-01-11T15:44:49.310Z,0.30
2023-01-11T15:47:16.599Z,0.30
2023-01-11T15:49:49.271Z,6.20
2023-01-11T15:52:13.197Z,6.20
2023-01-11T15:54:48.982Z,6.20
2023-01-11T15:57:17.025Z,6.20
2023-01-11T15:59:48.559Z,2.80
2023-01-11T16:02:19.333Z,2.80
2023-01-11T16:04:32.900Z,2.80
2023-01-11T16:07:09.595Z,2.80
2023-01-11T16:09:49.276Z,2.50
2023-01-11T16:12:13.509Z,2.50
2023-01-11T16:14:45.556Z,2.50
2023-01-11T16:17:01.079Z,2.50
2023-01-11T16:19:34.842Z,1.80
2023-01-11T16:22:04.651Z,1.80
2023-01-11T16:24:37.966Z,1.80
2023-01-11T16:27:03.184Z,1.80
2023-01-11T16:29:31.779Z,0.20
2023-01-11T16:32:01.586Z,0.20
2023-01-11T16:34:40.103Z,0.20
2023-01-11T16:36:59.373Z,0.20
2023-01-11T16:39:32.734Z,0.30
2023-01-11T16:42:03.176Z,0.30
2023-01-11T16:44:40.606Z,0.30
2023-01-11T16:47:11.183Z,0.30
2023-01-11T16:49:29.553Z,1.50
2023-01-11T16:52:00.785Z,1.50
2023-01-11T16:54:32.391Z,1.50
2023-01-11T16:57:00.581Z,1.50
2023-01-11T16:59:29.967Z,0.30
2023-01-11T17:02:02.822Z,0.30
2023-01-11T17:04:31.158Z,0.30
2023-01-11T17:07:12.776Z,0.30
2023-01-11T17:11:59.350Z,8.50
2023-01-11T17:14:46.876Z,8.50
2023-01-11T17:17:03.028Z,8.50
2023-01-11T17:19:31.153Z,1.90
2023-01-11T17:24:33.593Z,1.90
2023-01-11T17:27:01.554Z,1.90
2023-01-11T17:29:31.907Z,0.70
2023-01-11T17:34:31.510Z,0.70
2023-01-11T17:42:12.889Z,1.20
2023-01-11T17:44:39.330Z,1.20
2023-01-11T17:46:59.587Z,1.20
2023-01-11T17:49:31.925Z,0.10
2023-01-11T17:52:06.869Z,0.10
2023-01-11T17:54:29.853Z,0.10
2023-01-11T17:57:00.183Z,0.10
2023-01-11T17:59:30.382Z,0.30
2023-01-11T18:02:03.102Z,0.30
2023-01-11T18:04:30.811Z,0.30
2023-01-11T18:07:06.528Z,0.30
2023-01-11T18:09:31.469Z,0.80
2023-01-11T18:12:06.331Z,0.80
2023-01-11T18:14:37.502Z,0.80
2023-01-11T18:17:03.017Z,0.80
2023-01-11T18:19:32.750Z,3.60
2023-01-11T18:22:00.777Z,3.60
2023-01-11T18:24:33.169Z,3.60
2023-01-11T18:27:18.366Z,3.60
2023-01-11T18:29:47.928Z,0.40
2023-01-11T18:31:59.317Z,0.40
2023-01-11T18:34:30.616Z,0.40
2023-01-11T18:37:00.808Z,0.40
2023-01-11T18:42:08.051Z,0.30
2023-01-11T18:44:29.906Z,0.30
2023-01-11T18:46:59.292Z,0.30
2023-01-11T18:49:29.304Z,5.30
2023-01-11T18:51:59.261Z,5.30
2023-01-11T18:54:29.519Z,5.30
2023-01-11T18:56:59.346Z,5.30
2023-01-11T18:59:29.451Z,0.20
2023-01-11T19:02:16.150Z,0.20
2023-01-11T19:04:29.699Z,0.20
2023-01-11T19:06:59.341Z,0.20
2023-01-11T19:09:29.451Z,2.30
2023-01-11T19:11:59.294Z,2.30
2023-01-11T19:14:29.276Z,2.30
2023-01-11T19:16:59.848Z,2.30
2023-01-11T19:19:29.741Z,0.10
2023-01-11T19:21:59.477Z,0.10
2023-01-11T19:24:29.571Z,0.10
2023-01-11T19:26:59.349Z,0.10
2023-01-11T19:29:30.169Z,0.70
2023-01-11T19:31:59.476Z,0.70
2023-01-11T19:34:32.171Z,0.70
2023-01-11T19:36:59.731Z,0.70
2023-01-11T19:39:29.475Z,0.40
2023-01-11T19:42:01.569Z,0.40
2023-01-11T19:44:30.864Z,0.40
2023-01-11T19:47:10.803Z,0.40
2023-01-11T19:49:30.614Z,0.50
2023-01-11T19:52:00.522Z,0.50
2023-01-11T19:54:29.618Z,0.50
2023-01-11T19:56:59.529Z,0.50
2023-01-11T19:59:29.282Z,0.30
2023-01-11T20:01:59.295Z,0.30
2023-01-11T20:04:29.412Z,0.30
2023-01-11T20:06:59.578Z,0.30
2023-01-11T20:09:29.346Z,0.60
2023-01-11T20:11:59.748Z,0.60
2023-01-11T20:14:29.482Z,0.60
2023-01-11T20:17:00.018Z,0.60
2023-01-11T20:19:29.704Z,0.90
2023-01-11T20:24:30.356Z,0.90
2023-01-11T20:34:29.804Z,0.40
2023-01-11T20:36:59.433Z,0.40
2023-01-11T20:39:29.439Z,0.30
2023-01-11T20:42:01.661Z,0.30
2023-01-11T20:44:31.280Z,0.30
2023-01-11T20:47:00.106Z,0.30
2023-01-11T20:49:29.763Z,0.30
2023-01-11T20:51:59.424Z,0.30
2023-01-11T20:54:29.614Z,0.30
2023-01-11T20:57:04.515Z,0.30
2023-01-11T20:59:31.230Z,3.90
2023-01-11T21:01:59.527Z,3.90
2023-01-11T21:04:29.731Z,3.90
2023-01-11T21:06:59.344Z,3.90
2023-01-11T21:09:29.610Z,1.20
2023-01-11T21:11:59.373Z,1.20
2023-01-11T21:14:29.608Z,1.20
2023-01-11T21:16:59.343Z,1.20
2023-01-11T21:19:30.482Z,0.60
2023-01-11T21:21:59.354Z,0.60
2023-01-11T21:24:29.402Z,0.60
2023-01-11T21:26:59.696Z,0.60
2023-01-11T21:29:29.363Z,0.10
2023-01-11T21:31:59.560Z,0.10
2023-01-11T21:34:29.668Z,0.10
2023-01-11T21:36:59.379Z,0.10
2023-01-11T21:39:29.516Z,0.20
2023-01-11T21:42:00.260Z,0.20
2023-01-11T21:44:31.168Z,0.20
2023-01-11T21:47:00.608Z,0.20
2023-01-11T21:49:29.727Z,0.50
2023-01-11T21:51:59.737Z,0.50
2023-01-11T21:56:59.507Z,0.50
2023-01-11T21:59:32.555Z,0.10
2023-01-11T22:04:29.708Z,0.10
2023-01-11T22:06:59.460Z,0.10
2023-01-11T22:09:31.138Z,0.10
2023-01-11T22:11:59.329Z,0.10
2023-01-11T22:14:29.637Z,0.10
2023-01-11T22:17:00.022Z,0.10
2023-01-11T22:19:29.369Z,0.50
2023-01-11T22:21:59.848Z,0.50
2023-01-11T22:24:29.349Z,0.50
2023-01-11T22:26:59.464Z,0.50
2023-01-11T22:29:29.858Z,0.70
2023-01-11T22:32:00.539Z,0.70
2023-01-11T22:34:29.393Z,0.70
2023-01-11T22:36:59.341Z,0.70
2023-01-11T22:39:29.514Z,0.10
2023-01-11T22:41:59.513Z,0.10
2023-01-11T22:44:29.698Z,0.10
2023-01-11T22:47:00.504Z,0.10
2023-01-11T22:49:29.402Z,0.50
2023-01-11T22:51:59.683Z,0.50
2023-01-11T22:54:29.416Z,0.50
2023-01-11T22:56:59.831Z,0.50
2023-01-11T22:59:29.472Z,0.30
2023-01-11T23:01:59.378Z,0.30
2023-01-11T23:04:29.341Z,0.30
2023-01-11T23:06:59.708Z,0.30
2023-01-11T23:09:30.171Z,0.10
2023-01-11T23:12:09.261Z,0.10
2023-01-11T23:14:31.779Z,0.10
2023-01-11T23:17:01.369Z,0.10
2023-01-11T23:19:31.184Z,0.20
2023-01-11T23:21:59.686Z,0.20
2023-01-11T23:24:29.705Z,0.20
2023-01-11T23:26:59.478Z,0.20
2023-01-11T23:29:29.368Z,0.10
2023-01-11T23:31:59.638Z,0.10
2023-01-11T23:34:29.444Z,0.10
2023-01-11T23:36:59.483Z,0.10
2023-01-11T23:39:29.691Z,0.30
2023-01-11T23:44:29.756Z,0.30
2023-01-11T23:47:09.419Z,0.30
2023-01-11T23:49:30.744Z,0.10
2023-01-11T23:52:00.547Z,0.10
2023-01-11T23:54:31.917Z,0.10
2023-01-11T23:57:00.746Z,0.10
2023-01-11T23:59:30.296Z,0.30
